createdAt,value
2017-10-02T00:00:42.318Z,100995.59
2017-10-02T00:03:08.561Z,100991.17
2017-10-02T00:05:34.806Z,100988.66
2017-10-02T00:08:01.240Z,100988.25
2017-10-02T00:10:27.481Z,100984.59
2017-10-02T00:12:53.751Z,100987.91
2017-10-02T00:15:19.988Z,100993.58
2017-10-02T00:17:46.360Z,100989.75
2017-10-02T00:20:12.635Z,100996.76
2017-10-02T00:22:38.885Z,100990.77
2017-10-02T00:25:05.113Z,100990.58
2017-10-02T00:27:31.487Z,100990.17
2017-10-02T00:29:57.735Z,100984.48
2017-10-02T00:32:23.966Z,100976.27
2017-10-02T00:34:50.232Z,100980.41
2017-10-02T00:37:16.496Z,100979.42
2017-10-02T00:39:42.760Z,100979.76
2017-10-02T00:42:09.013Z,100976.34
2017-10-02T00:44:35.261Z,100974.66
2017-10-02T00:47:01.508Z,100972.83
2017-10-02T00:49:27.781Z,100974.98
2017-10-02T00:51:54.008Z,100977.75
2017-10-02T00:54:20.244Z,100977.75
2017-10-02T00:56:46.492Z,100979.50
2017-10-02T00:59:12.866Z,100982.09
2017-10-02T01:01:39.109Z,100985.92
2017-10-02T01:04:05.349Z,100989.69
2017-10-02T01:06:31.585Z,100987.67
2017-10-02T01:08:57.826Z,100982.92
2017-10-02T01:11:24.062Z,100978.75
2017-10-02T01:13:50.441Z,100979.33
2017-10-02T01:16:16.674Z,100977.59
2017-10-02T01:18:42.911Z,100983.59
2017-10-02T01:21:09.308Z,100964.58
2017-10-02T01:23:35.536Z,100986.51
2017-10-02T01:26:01.776Z,100986.93
2017-10-02T01:28:28.019Z,100986.19
2017-10-02T01:30:54.262Z,100989.69
2017-10-02T01:33:20.494Z,100987.25
2017-10-02T01:35:46.740Z,100990.73
2017-10-02T01:38:12.988Z,100995.97
2017-10-02T01:40:39.218Z,100996.31
2017-10-02T01:43:05.448Z,100989.55
2017-10-02T01:45:31.686Z,100995.66
2017-10-02T01:47:57.926Z,100996.97
2017-10-02T01:50:24.174Z,100997.73
2017-10-02T01:52:50.439Z,101001.41
2017-10-02T01:55:16.664Z,100994.40
2017-10-02T01:57:42.907Z,100997.56
2017-10-02T02:00:09.206Z,101000.91
2017-10-02T02:02:35.437Z,100996.15
2017-10-02T02:05:01.660Z,100996.42
2017-10-02T02:07:27.918Z,100995.41
2017-10-02T02:09:54.147Z,100996.34
2017-10-02T02:12:20.368Z,100996.06
2017-10-02T02:14:46.636Z,101000.98
2017-10-02T02:17:12.857Z,100998.66
2017-10-02T02:19:39.089Z,101003.07
2017-10-02T02:22:05.362Z,101007.64
2017-10-02T02:24:31.597Z,101006.16
2017-10-02T02:26:57.852Z,101012.10
2017-10-02T02:29:24.128Z,101010.66
2017-10-02T02:31:50.357Z,101011.14
2017-10-02T02:34:16.595Z,101010.77
2017-10-02T02:36:42.897Z,101012.59
2017-10-02T02:39:09.133Z,101014.58
2017-10-02T02:41:35.349Z,101009.50
2017-10-02T02:44:01.628Z,101018.27
2017-10-02T02:46:27.862Z,101018.59
2017-10-02T02:48:54.088Z,101011.27
2017-10-02T02:51:20.405Z,101009.03
2017-10-02T02:53:46.629Z,101014.61
2017-10-02T02:56:12.865Z,101016.02
2017-10-02T02:58:39.144Z,101016.87
2017-10-02T03:01:05.372Z,101023.86
2017-10-02T03:03:31.592Z,101014.36
2017-10-02T03:05:57.983Z,101016.17
2017-10-02T03:08:24.222Z,101016.43
2017-10-02T03:10:50.449Z,101017.75
2017-10-02T03:13:16.717Z,101020.09
2017-10-02T03:15:42.945Z,101021.31
2017-10-02T03:18:09.299Z,101022.58
2017-10-02T03:20:35.567Z,101018.27
2017-10-02T03:23:01.787Z,101019.58
2017-10-02T03:25:28.026Z,101023.59
2017-10-02T03:27:54.297Z,101026.63
2017-10-02T03:30:20.534Z,101037.92
2017-10-02T03:32:46.753Z,101036.78
2017-10-02T03:35:13.041Z,101038.64
2017-10-02T03:37:39.276Z,101041.61
2017-10-02T03:40:05.511Z,101038.87
2017-10-02T03:42:32.009Z,101038.30
2017-10-02T03:44:58.220Z,101040.25
2017-10-02T03:47:24.433Z,101041.24
2017-10-02T03:49:50.683Z,101042.83
2017-10-02T03:52:16.968Z,101044.14
2017-10-02T03:54:43.208Z,101049.02
2017-10-02T03:57:09.471Z,101055.33
2017-10-02T03:59:35.698Z,101052.44
2017-10-02T04:02:01.931Z,101052.91
2017-10-02T04:04:28.207Z,101052.28
2017-10-02T04:06:54.442Z,101047.97
2017-10-02T04:09:20.680Z,101053.25
2017-10-02T04:11:46.950Z,101050.16
2017-10-02T04:14:13.180Z,101047.38
2017-10-02T04:16:39.447Z,101052.54
2017-10-02T04:19:05.728Z,101058.20
2017-10-02T04:21:31.955Z,101059.66
2017-10-02T04:23:58.188Z,101065.94
2017-10-02T04:26:24.555Z,101065.94
2017-10-02T04:28:50.792Z,101065.52
2017-10-02T04:31:17.033Z,101067.94
2017-10-02T04:33:43.317Z,101061.78
2017-10-02T04:36:09.550Z,101065.61
2017-10-02T04:38:35.788Z,101072.64
2017-10-02T04:41:02.063Z,101075.62
2017-10-02T04:43:28.288Z,101076.70
2017-10-02T04:45:54.524Z,101080.06
2017-10-02T04:48:20.849Z,101078.41
2017-10-02T04:50:47.106Z,101085.27
2017-10-02T04:53:13.329Z,101092.72
2017-10-02T04:55:39.610Z,101087.23
2017-10-02T04:58:05.931Z,101095.89
2017-10-02T05:00:32.164Z,101096.92
2017-10-02T05:02:58.429Z,101093.19
2017-10-02T05:05:24.666Z,101098.55
2017-10-02T05:07:50.892Z,101094.61
2017-10-02T05:10:17.279Z,101084.58
2017-10-02T05:12:43.522Z,101093.14
2017-10-02T05:15:09.759Z,101089.88
2017-10-02T05:17:36.042Z,101094.50
2017-10-02T05:20:02.271Z,101092.56
2017-10-02T05:22:28.537Z,101094.33
2017-10-02T05:24:54.884Z,101095.22
2017-10-02T05:27:21.136Z,101097.02
2017-10-02T05:29:47.359Z,101086.41
2017-10-02T05:32:13.615Z,101089.66
2017-10-02T05:34:39.858Z,101094.09
2017-10-02T05:37:06.107Z,101090.64
2017-10-02T05:39:32.437Z,101092.00
2017-10-02T05:41:58.662Z,101090.17
2017-10-02T05:44:25.043Z,101094.81
2017-10-02T05:46:51.339Z,101092.84
2017-10-02T05:49:17.589Z,101098.46
2017-10-02T05:51:43.833Z,101101.91
2017-10-02T05:54:10.112Z,101092.17
2017-10-02T05:56:36.344Z,101097.85
2017-10-02T05:59:02.572Z,101101.13
2017-10-02T06:01:28.869Z,101100.27
2017-10-02T06:03:55.130Z,101089.86
2017-10-02T06:06:21.357Z,101109.19
2017-10-02T06:08:47.622Z,101118.36
2017-10-02T06:11:13.846Z,101117.09
2017-10-02T06:13:40.065Z,101121.52
2017-10-02T06:16:06.336Z,101113.22
2017-10-02T06:18:32.677Z,101110.28
2017-10-02T06:20:58.915Z,101121.46
2017-10-02T06:23:25.190Z,101120.50
2017-10-02T06:25:51.406Z,101110.62
2017-10-02T06:28:17.624Z,101120.12
2017-10-02T06:30:43.896Z,101118.80
2017-10-02T06:33:10.122Z,101118.53
2017-10-02T06:35:36.332Z,101116.39
2017-10-02T06:38:02.605Z,101114.09
2017-10-02T06:40:28.840Z,101112.56
2017-10-02T06:42:55.187Z,101113.86
2017-10-02T06:45:21.452Z,101108.08
2017-10-02T06:47:47.687Z,101100.91
2017-10-02T06:50:13.910Z,101104.63
2017-10-02T06:52:40.200Z,101112.25
2017-10-02T06:55:06.433Z,101106.78
2017-10-02T06:57:32.661Z,101104.23
2017-10-02T06:59:58.918Z,101102.01
2017-10-02T07:02:25.139Z,101096.99
2017-10-02T07:04:51.460Z,101099.21
2017-10-02T07:07:17.718Z,101092.05
2017-10-02T07:09:43.956Z,101097.70
2017-10-02T07:12:10.176Z,101101.05
2017-10-02T07:14:36.440Z,101102.05
2017-10-02T07:17:02.680Z,101095.41
2017-10-02T07:19:28.976Z,101093.23
2017-10-02T07:21:55.271Z,101090.86
2017-10-02T07:24:21.496Z,101095.52
2017-10-02T07:26:47.739Z,101098.52
2017-10-02T07:29:14.012Z,101100.32
2017-10-02T07:31:40.242Z,101101.06
2017-10-02T07:34:06.481Z,101106.45
2017-10-02T07:36:32.762Z,101103.52
2017-10-02T07:38:58.988Z,101099.70
2017-10-02T07:41:25.280Z,101104.49
2017-10-02T07:43:51.552Z,101097.13
2017-10-02T07:46:17.778Z,101091.30
2017-10-02T07:48:44.006Z,101091.97
2017-10-02T07:51:10.258Z,101090.84
2017-10-02T07:53:36.491Z,101093.78
2017-10-02T07:56:02.722Z,101085.89
2017-10-02T07:58:29.016Z,101094.63
2017-10-02T08:00:55.272Z,101085.27
2017-10-02T08:03:21.490Z,101086.09
2017-10-02T08:05:47.750Z,101085.27
2017-10-02T08:08:13.977Z,101080.50
2017-10-02T08:10:40.208Z,101081.95
2017-10-02T08:13:06.478Z,101076.25
2017-10-02T08:15:32.740Z,101071.30
2017-10-02T08:17:58.968Z,101072.80
2017-10-02T08:20:25.228Z,101069.84
2017-10-02T08:22:51.463Z,101065.59
2017-10-02T08:25:17.714Z,101072.88
2017-10-02T08:27:43.991Z,101069.08
2017-10-02T08:30:10.224Z,101065.18
2017-10-02T08:32:36.442Z,101068.19
2017-10-02T08:35:02.707Z,101073.25
2017-10-02T08:37:28.972Z,101069.25
2017-10-02T08:39:55.210Z,101068.98
2017-10-02T08:42:21.395Z,101069.03
2017-10-02T08:44:47.574Z,101061.11
2017-10-02T08:47:13.750Z,101066.62
2017-10-02T08:49:39.921Z,101064.75
2017-10-02T08:52:06.108Z,101061.48
2017-10-02T08:54:32.289Z,101063.00
2017-10-02T08:56:58.488Z,101057.22
2017-10-02T08:59:24.663Z,101055.53
2017-10-02T09:01:50.833Z,101057.70
2017-10-02T09:04:17.019Z,101051.75
2017-10-02T09:06:43.208Z,101049.40
2017-10-02T09:09:09.403Z,101038.88
2017-10-02T09:11:35.713Z,101047.53
2017-10-02T09:14:01.891Z,101046.23
2017-10-02T09:16:28.084Z,101049.23
2017-10-02T09:18:54.293Z,101051.41
2017-10-02T09:21:20.617Z,101048.16
2017-10-02T09:23:46.809Z,101045.31
2017-10-02T09:26:13.038Z,101041.72
2017-10-02T09:28:39.226Z,101039.79
2017-10-02T09:31:05.397Z,101046.37
2017-10-02T09:33:31.627Z,101040.97
2017-10-02T09:35:57.807Z,101034.94
2017-10-02T09:38:23.979Z,101042.72
2017-10-02T09:40:50.252Z,101034.95
2017-10-02T09:43:16.422Z,101036.80
2017-10-02T09:45:42.598Z,101032.98
2017-10-02T09:48:08.813Z,101031.30
2017-10-02T09:50:35.001Z,101032.51
2017-10-02T09:53:01.185Z,101018.53
2017-10-02T09:55:27.409Z,101034.21
2017-10-02T09:57:53.592Z,101031.14
2017-10-02T10:00:19.771Z,101036.14
2017-10-02T10:02:45.993Z,101031.33
2017-10-02T10:05:12.170Z,101028.42
2017-10-02T10:07:38.343Z,101027.64
2017-10-02T10:10:04.564Z,101024.01
2017-10-02T10:12:30.729Z,101022.70
2017-10-02T10:14:56.902Z,101020.69
2017-10-02T10:17:23.106Z,101014.14
2017-10-02T10:19:49.267Z,101010.39
2017-10-02T10:22:15.438Z,101006.27
2017-10-02T10:24:41.641Z,101001.36
2017-10-02T10:27:07.812Z,100996.80
2017-10-02T10:29:33.992Z,100990.22
2017-10-02T10:32:00.269Z,100994.27
2017-10-02T10:34:26.452Z,100983.24
2017-10-02T10:36:52.614Z,100982.76
2017-10-02T10:39:18.832Z,100981.95
2017-10-02T10:41:45.015Z,100980.77
2017-10-02T10:44:11.210Z,100974.56
2017-10-02T10:46:37.426Z,100963.77
2017-10-02T10:49:04.147Z,100958.21
2017-10-02T10:51:30.318Z,100963.19
2017-10-02T10:53:56.538Z,100956.53
2017-10-02T10:56:22.702Z,100950.98
2017-10-02T10:58:48.877Z,100947.61
2017-10-02T11:01:15.078Z,100955.98
2017-10-02T11:03:41.252Z,100943.58
2017-10-02T11:06:07.437Z,100941.84
2017-10-02T11:08:33.642Z,100937.80
2017-10-02T11:10:59.829Z,100937.80
2017-10-02T11:13:26.002Z,100940.09
2017-10-02T11:15:52.376Z,100934.71
2017-10-02T11:18:18.557Z,100944.66
2017-10-02T11:20:44.739Z,100934.88
2017-10-02T11:23:10.960Z,100926.70
2017-10-02T11:25:37.138Z,100931.11
2017-10-02T11:28:03.332Z,100931.16
2017-10-02T11:30:29.565Z,100928.28
2017-10-02T11:32:55.737Z,100928.91
2017-10-02T11:35:22.010Z,100923.88
2017-10-02T11:37:48.205Z,100920.29
2017-10-02T11:40:14.394Z,100914.80
2017-10-02T11:42:40.580Z,100911.03
2017-10-02T11:45:06.806Z,100908.78
2017-10-02T11:47:32.979Z,100905.53
2017-10-02T11:49:59.165Z,100902.02
2017-10-02T11:52:25.382Z,100899.62
2017-10-02T11:54:51.558Z,100896.23
2017-10-02T11:57:17.726Z,100898.98
2017-10-02T11:59:43.939Z,100898.34
2017-10-02T12:02:10.128Z,100901.28
2017-10-02T12:04:36.321Z,100897.75
2017-10-02T12:07:02.526Z,100890.83
2017-10-02T12:09:28.720Z,100892.95
2017-10-02T12:11:55.024Z,100893.88
2017-10-02T12:14:21.230Z,100897.47
2017-10-02T12:16:47.416Z,100893.73
2017-10-02T12:19:13.586Z,100893.61
2017-10-02T12:21:40.137Z,100899.47
2017-10-02T12:24:06.332Z,100888.28
2017-10-02T12:26:32.515Z,100886.86
2017-10-02T12:28:58.817Z,100898.34
2017-10-02T12:31:24.998Z,100887.95
2017-10-02T12:33:51.180Z,100886.75
2017-10-02T12:36:17.415Z,100877.22
2017-10-02T12:38:43.608Z,100882.18
2017-10-02T12:41:09.965Z,100878.19
2017-10-02T12:43:36.207Z,100876.72
2017-10-02T12:46:02.421Z,100875.50
2017-10-02T12:48:28.591Z,100873.31
2017-10-02T12:50:54.812Z,100874.82
2017-10-02T12:53:20.987Z,100875.39
2017-10-02T12:55:47.170Z,100869.97
2017-10-02T12:58:13.401Z,100866.21
2017-10-02T13:00:39.683Z,100862.75
2017-10-02T13:03:05.868Z,100862.81
2017-10-02T13:05:32.072Z,100860.25
2017-10-02T13:07:58.242Z,100860.77
2017-10-02T13:10:24.619Z,100851.13
2017-10-02T13:12:50.852Z,100856.70
2017-10-02T13:15:17.045Z,100850.05
2017-10-02T13:17:43.243Z,100849.45
2017-10-02T13:20:09.511Z,100848.64
2017-10-02T13:22:35.695Z,100852.20
2017-10-02T13:25:01.862Z,100840.71
2017-10-02T13:27:28.070Z,100848.07
2017-10-02T13:29:54.385Z,100848.72
2017-10-02T13:32:20.553Z,100847.48
2017-10-02T13:34:46.771Z,100847.05
2017-10-02T13:37:12.942Z,100842.29
2017-10-02T13:39:39.106Z,100837.56
2017-10-02T13:42:05.373Z,100835.38
2017-10-02T13:44:31.539Z,100834.36
2017-10-02T13:46:57.828Z,100836.11
2017-10-02T13:49:24.069Z,100832.84
2017-10-02T13:51:50.279Z,100830.98
2017-10-02T13:54:16.472Z,100829.49
2017-10-02T13:56:42.715Z,100832.88
2017-10-02T13:59:08.884Z,100837.92
2017-10-02T14:01:35.069Z,100832.64
2017-10-02T14:04:01.299Z,100835.98
2017-10-02T14:06:27.700Z,100836.53
2017-10-02T14:08:54.060Z,100835.28
2017-10-02T14:11:20.295Z,100830.57
2017-10-02T14:13:46.473Z,100832.11
2017-10-02T14:16:12.782Z,100826.14
2017-10-02T14:18:39.012Z,100827.02
2017-10-02T14:21:05.190Z,100824.00
2017-10-02T14:23:31.363Z,100821.69
2017-10-02T14:25:57.573Z,100824.38
2017-10-02T14:28:23.938Z,100822.99
2017-10-02T14:30:50.114Z,100819.36
2017-10-02T14:33:16.337Z,100816.73
2017-10-02T14:35:42.527Z,100819.70
2017-10-02T14:38:08.737Z,100823.70
2017-10-02T14:40:35.064Z,100824.11
2017-10-02T14:43:01.243Z,100821.11
2017-10-02T14:45:27.419Z,100819.55
2017-10-02T14:47:53.614Z,100819.69
2017-10-02T14:50:19.784Z,100820.42
2017-10-02T14:52:45.966Z,100820.17
2017-10-02T14:55:12.219Z,100816.92
2017-10-02T14:57:38.396Z,100815.52
2017-10-02T15:00:04.991Z,100817.41
2017-10-02T15:02:31.239Z,100820.36
2017-10-02T15:04:57.408Z,100817.11
2017-10-02T15:07:23.698Z,100816.40
2017-10-02T15:09:49.905Z,100817.97
2017-10-02T15:12:16.077Z,100815.59
2017-10-02T15:14:42.260Z,100816.73
2017-10-02T15:17:08.490Z,100827.27
2017-10-02T15:19:34.648Z,100828.12
2017-10-02T15:22:00.816Z,100825.42
2017-10-02T15:24:27.037Z,100825.00
2017-10-02T15:26:53.208Z,100824.15
2017-10-02T15:29:19.406Z,100825.44
2017-10-02T15:31:45.614Z,100824.55
2017-10-02T15:34:11.809Z,100823.72
2017-10-02T15:36:38.032Z,100828.55
2017-10-02T15:39:04.240Z,100831.00
2017-10-02T15:41:30.419Z,100837.42
2017-10-02T15:43:56.647Z,100835.07
2017-10-02T15:46:22.870Z,100840.20
2017-10-02T15:48:49.045Z,100840.41
2017-10-02T15:51:15.213Z,100840.91
2017-10-02T15:53:41.424Z,100844.55
2017-10-02T15:56:07.590Z,100847.59
2017-10-02T15:58:33.770Z,100841.80
2017-10-02T16:01:00.013Z,100845.36
2017-10-02T16:03:26.196Z,100845.27
2017-10-02T16:05:52.374Z,100845.41
2017-10-02T16:08:18.592Z,100848.30
2017-10-02T16:10:44.765Z,100843.64
2017-10-02T16:13:10.956Z,100846.59
2017-10-02T16:15:37.179Z,100842.96
2017-10-02T16:18:03.350Z,100844.59
2017-10-02T16:20:29.521Z,100847.02
2017-10-02T16:22:55.742Z,100840.56
2017-10-02T16:25:21.928Z,100841.23
2017-10-02T16:27:48.116Z,100843.59
2017-10-02T16:30:14.323Z,100843.94
2017-10-02T16:32:40.494Z,100848.62
2017-10-02T16:35:06.673Z,100854.27
2017-10-02T16:37:32.885Z,100852.36
2017-10-02T16:39:59.061Z,100860.23
2017-10-02T16:42:25.222Z,100859.99
2017-10-02T16:44:51.423Z,100861.91
2017-10-02T16:47:17.596Z,100856.03
2017-10-02T16:49:43.769Z,100857.78
2017-10-02T16:52:09.997Z,100859.02
2017-10-02T16:54:36.180Z,100866.69
2017-10-02T16:57:02.396Z,100859.52
2017-10-02T16:59:28.596Z,100858.80
2017-10-02T17:01:54.763Z,100862.24
2017-10-02T17:04:20.930Z,100867.21
2017-10-02T17:06:47.156Z,100861.63
2017-10-02T17:09:13.364Z,100861.05
2017-10-02T17:11:39.585Z,100862.05
2017-10-02T17:14:05.819Z,100857.79
2017-10-02T17:16:32.123Z,100865.59
2017-10-02T17:18:58.291Z,100872.63
2017-10-02T17:21:24.508Z,100872.14
2017-10-02T17:23:50.679Z,100867.83
2017-10-02T17:26:16.929Z,100874.34
2017-10-02T17:28:43.321Z,100866.14
2017-10-02T17:31:09.482Z,100873.27
2017-10-02T17:33:35.660Z,100876.23
2017-10-02T17:36:01.857Z,100876.81
2017-10-02T17:38:28.036Z,100874.02
2017-10-02T17:40:54.226Z,100878.89
2017-10-02T17:45:52.991Z,100874.37
2017-10-02T17:48:19.194Z,100876.19
2017-10-02T17:50:45.373Z,100880.97
2017-10-02T17:53:11.546Z,100879.78
2017-10-02T17:55:37.772Z,100884.85
2017-10-02T17:58:03.953Z,100884.88
2017-10-02T18:00:30.118Z,100887.53
2017-10-02T18:02:56.366Z,100892.45
2017-10-02T18:05:22.552Z,100891.34
2017-10-02T18:07:48.746Z,100891.55
2017-10-02T18:10:15.044Z,100890.50
2017-10-02T18:12:41.227Z,100893.48
2017-10-02T18:15:07.535Z,100892.14
2017-10-02T18:17:33.742Z,100899.23
2017-10-02T18:19:59.911Z,100904.30
2017-10-02T18:22:26.089Z,100898.42
2017-10-02T18:24:52.302Z,100906.93
2017-10-02T18:27:18.503Z,100905.11
2017-10-02T18:29:44.679Z,100906.22
2017-10-02T18:32:10.887Z,100908.14
2017-10-02T18:34:37.047Z,100912.16
2017-10-02T18:37:03.243Z,100914.91
2017-10-02T18:39:29.491Z,100913.77
2017-10-02T18:41:55.675Z,100913.68
2017-10-02T18:44:22.666Z,100913.19
2017-10-02T18:46:48.872Z,100913.11
2017-10-02T18:49:15.233Z,100916.16
2017-10-02T18:51:41.446Z,100922.72
2017-10-02T18:54:10.563Z,100922.53
2017-10-02T18:56:36.860Z,100927.56
2017-10-02T18:59:04.021Z,100923.75
2017-10-02T19:01:30.224Z,100920.53
2017-10-02T19:03:56.422Z,100924.31
2017-10-02T19:06:22.715Z,100928.31
2017-10-02T19:08:48.904Z,100920.94
2017-10-02T19:13:50.098Z,100923.85
2017-10-02T19:16:16.268Z,100915.84
2017-10-02T19:18:42.457Z,100919.88
2017-10-02T19:21:08.643Z,100922.64
2017-10-02T19:23:35.034Z,100925.59
2017-10-02T19:26:01.239Z,100917.34
2017-10-02T19:28:27.473Z,100915.64
2017-10-02T19:30:53.650Z,100916.78
2017-10-02T19:33:19.855Z,100912.28
2017-10-02T19:35:46.056Z,100915.16
2017-10-02T19:38:12.247Z,100914.44
2017-10-02T19:40:38.490Z,100913.06
2017-10-02T19:43:04.652Z,100914.17
2017-10-02T19:45:30.832Z,100910.77
2017-10-02T19:47:57.112Z,100919.52
2017-10-02T19:50:23.350Z,100913.33
2017-10-02T19:52:49.520Z,100908.81
2017-10-02T19:55:15.747Z,100911.82
2017-10-02T19:57:41.941Z,100909.66
2017-10-02T20:00:08.122Z,100913.47
2017-10-02T20:02:34.489Z,100915.45
2017-10-02T20:05:00.697Z,100908.27
2017-10-02T20:07:26.918Z,100913.94
2017-10-02T20:09:53.131Z,100913.06
2017-10-02T20:12:19.311Z,100915.92
2017-10-02T20:14:45.489Z,100916.70
2017-10-02T20:17:11.680Z,100918.74
2017-10-02T20:19:37.875Z,100918.14
2017-10-02T20:22:04.227Z,100925.63
2017-10-02T20:24:30.420Z,100918.98
2017-10-02T20:26:57.354Z,100922.81
2017-10-02T20:29:23.593Z,100914.97
2017-10-02T20:31:49.962Z,100922.92
2017-10-02T20:34:16.150Z,100918.00
2017-10-02T20:36:43.496Z,100914.20
2017-10-02T20:39:09.670Z,100909.55
2017-10-02T20:41:35.843Z,100914.33
2017-10-02T20:44:02.037Z,100911.16
2017-10-02T20:46:28.274Z,100908.36
2017-10-02T20:48:54.449Z,100910.17
2017-10-02T20:51:20.675Z,100911.78
2017-10-02T20:53:53.460Z,100913.73
2017-10-02T20:56:19.636Z,100910.41
2017-10-02T20:58:45.864Z,100911.62
2017-10-02T21:01:13.388Z,100908.11
2017-10-02T21:03:39.597Z,100911.36
2017-10-02T21:06:05.825Z,100908.55
2017-10-02T21:08:32.015Z,100907.80
2017-10-02T21:10:58.217Z,100904.98
2017-10-02T21:13:24.441Z,100901.31
2017-10-02T21:15:50.627Z,100901.31
2017-10-02T21:18:16.826Z,100897.09
2017-10-02T21:20:43.062Z,100896.41
2017-10-02T21:25:53.667Z,100886.84
2017-10-02T21:28:19.944Z,100883.23
2017-10-02T21:30:46.140Z,100889.58
2017-10-02T21:33:12.370Z,100886.05
2017-10-02T21:35:38.553Z,100882.82
2017-10-02T21:38:04.750Z,100887.38
2017-10-02T21:40:30.967Z,100890.32
2017-10-02T21:42:57.166Z,100880.07
2017-10-02T21:45:23.371Z,100881.56
2017-10-02T21:47:50.551Z,100883.13
2017-10-02T21:50:16.764Z,100872.47
2017-10-02T21:52:42.955Z,100884.56
2017-10-02T21:55:09.183Z,100878.30
2017-10-02T21:57:35.368Z,100875.55
2017-10-02T22:00:01.566Z,100871.48
2017-10-02T22:02:27.807Z,100875.31
2017-10-02T22:04:54.000Z,100879.06
2017-10-02T22:07:20.183Z,100877.23
2017-10-02T22:09:46.393Z,100869.32
2017-10-02T22:12:12.569Z,100870.75
2017-10-02T22:14:38.739Z,100868.00
2017-10-02T22:17:04.958Z,100862.80
2017-10-02T22:19:31.146Z,100860.41
2017-10-02T22:21:57.356Z,100864.84
2017-10-02T22:24:23.597Z,100866.48
2017-10-02T22:26:49.790Z,100859.06
2017-10-02T22:29:15.976Z,100868.40
2017-10-02T22:31:42.237Z,100865.66
2017-10-02T22:34:08.431Z,100863.91
2017-10-02T22:36:34.624Z,100848.83
2017-10-02T22:39:00.867Z,100865.31
2017-10-02T22:41:27.060Z,100867.32
2017-10-02T22:43:53.241Z,100857.89
2017-10-02T22:46:19.477Z,100861.31
2017-10-02T22:48:45.667Z,100864.00
2017-10-02T22:51:11.851Z,100864.15
2017-10-02T22:53:38.080Z,100864.08
2017-10-02T22:56:04.259Z,100874.48
2017-10-02T22:58:30.457Z,100876.71
2017-10-02T23:00:56.709Z,100873.22
2017-10-02T23:03:22.893Z,100869.62
2017-10-02T23:05:49.078Z,100865.44
2017-10-02T23:08:15.307Z,100866.05
2017-10-02T23:10:41.509Z,100864.15
2017-10-02T23:13:07.702Z,100865.98
2017-10-02T23:15:33.940Z,100865.13
2017-10-02T23:18:00.128Z,100864.36
2017-10-02T23:20:26.322Z,100864.00
2017-10-02T23:22:52.555Z,100868.39
2017-10-02T23:25:18.742Z,100861.99
2017-10-02T23:27:44.940Z,100864.35
2017-10-02T23:30:11.186Z,100862.86
2017-10-02T23:32:37.394Z,100868.88
2017-10-02T23:35:03.594Z,100868.27
2017-10-02T23:37:29.822Z,100872.05
2017-10-02T23:39:56.008Z,100875.71
2017-10-02T23:42:22.196Z,100870.84
2017-10-02T23:44:48.414Z,100868.19
2017-10-02T23:47:14.613Z,100860.63
2017-10-02T23:49:40.786Z,100866.16
2017-10-02T23:52:07.003Z,100864.88
2017-10-02T23:54:33.219Z,100866.48
2017-10-02T23:56:59.402Z,100865.55
2017-10-02T23:59:25.630Z,100870.93
